Terminal Aerodrome Forecast
Issued by NWS

Home | Current Version | Previous Version | Text Only | Print | Product List | Glossary On
Versions: 1 2 3 4 5 6 7 8 9 10 11 12 13 14 15
000
FTUS45 KRIW 241720
TAFBPI
TAF
KBPI 241720Z 2418/2518 26009KT P6SM VCSH SCT025 BKN050
      TEMPO 2419/2422 4SM -SHSN SCT015 BKN025
     FM242200 29014G24KT P6SM VCSH SCT030 BKN050
     FM250100 30012G18KT P6SM SCT050 BKN090
     FM250400 35007KT P6SM SCT050 BKN110
     FM251600 33016G28KT P6SM SCT025 BKN045=

USA.gov is the U.S. government's official web portal to all federal, state and local government web resources and services.